Time;durP1;ratioP1;P1;durP2;ratioP2;P2;SDS_P1;SDS_P2;PMS_P1;PMS_P2;Temp;Humidity;BMP_temperature;BMP_pressure;BME280_temperature;BME280_humidity;BME280_pressure;Samples;Min_cycle;Max_cycle;Signal;HPM_P1;HPM_P2
2022/12/04 00:02:24;;;;;;;;;;;1.70;99.90;;;;;;4996389;28;1906;-62
2022/12/04 00:04:49;;;;;;;;;;;1.60;99.90;;;;;;4994288;28;1240;-62
2022/12/04 00:07:15;;;;;;;;;;;1.60;99.90;;;;;;5011578;28;1091;-62
2022/12/04 00:09:41;;;;;;;;;;;1.60;99.90;;;;;;5011810;28;1134;-62
2022/12/04 00:12:06;;;;;;;;;;;1.80;99.90;;;;;;5011137;28;1110;-62
2022/12/04 00:14:32;;;;;;;;;;;1.60;99.90;;;;;;4996968;28;1205;-62
2022/12/04 00:16:57;;;;;;;;;;;1.60;99.90;;;;;;4992132;28;1075;-62
2022/12/04 00:19:23;;;;;;;;;;;1.60;99.90;;;;;;4991223;28;1134;-62
2022/12/04 00:21:49;;;;;;;;;;;1.60;99.90;;;;;;4991437;28;1910;-62
2022/12/04 00:24:15;;;;;;;;;;;1.60;99.90;;;;;;4997148;28;1165;-62
2022/12/04 00:26:41;;;;;;;;;;;1.60;99.90;;;;;;4991412;28;1135;-62
2022/12/04 00:29:07;;;;;;;;;;;1.50;99.90;;;;;;4990015;28;1119;-62
2022/12/04 00:31:32;;;;;;;;;;;1.50;99.90;;;;;;4991392;28;1078;-62
2022/12/04 00:33:58;;;;;;;;;;;1.50;99.90;;;;;;5008018;28;1111;-62
2022/12/04 00:36:25;;;;;;;;;;;1.40;99.90;;;;;;5011085;28;1126;-62
2022/12/04 00:38:51;;;;;;;;;;;1.70;99.90;;;;;;4993963;28;1045;-62
2022/12/04 00:41:18;;;;;;;;;;;1.30;99.90;;;;;;4990484;28;1915;-62
2022/12/04 00:43:44;;;;;;;;;;;1.20;99.90;;;;;;4991148;28;1135;-62
2022/12/04 00:46:10;;;;;;;;;;;1.20;99.90;;;;;;4991458;28;1587;-62
2022/12/04 00:48:36;;;;;;;;;;;1.20;99.90;;;;;;4990192;28;1171;-62
2022/12/04 00:51:03;;;;;;;;;;;1.10;99.90;;;;;;4991128;28;1256;-62
2022/12/04 00:53:28;;;;;;;;;;;1.10;99.90;;;;;;4990999;28;1099;-62
2022/12/04 00:55:54;;;;;;;;;;;1.10;99.90;;;;;;4991512;28;1103;-62
2022/12/04 00:58:19;;;;;;;;;;;1.10;99.90;;;;;;4994382;28;1172;-62
2022/12/04 01:00:45;;;;;;;;;;;1.10;99.90;;;;;;5009113;28;1918;-62
2022/12/04 01:03:11;;;;;;;;;;;1.10;99.90;;;;;;4973210;28;1891;-62
2022/12/04 01:05:37;;;;;;;;;;;1.10;99.90;;;;;;4990759;28;1115;-62
2022/12/04 01:08:03;;;;;;;;;;;1.20;99.90;;;;;;5007396;28;1227;-62
2022/12/04 01:10:29;;;;;;;;;;;1.20;99.90;;;;;;5010693;28;1217;-62
2022/12/04 01:12:54;;;;;;;;;;;1.20;99.90;;;;;;5010185;28;1090;-62
2022/12/04 01:15:20;;;;;;;;;;;1.20;99.90;;;;;;4993167;28;1321;-62
2022/12/04 01:17:45;;;;;;;;;;;1.20;99.90;;;;;;5007616;28;1186;-62
2022/12/04 01:20:12;;;;;;;;;;;1.50;99.90;;;;;;5010116;28;1059;-62
2022/12/04 01:22:37;;;;;;;;;;;1.20;99.90;;;;;;4997448;28;1110;-62
2022/12/04 01:25:03;;;;;;;;;;;1.20;99.90;;;;;;5000869;28;1101;-61
2022/12/04 01:27:29;;;;;;;;;;;1.20;99.90;;;;;;5010122;28;1106;-62
2022/12/04 01:29:54;;;;;;;;;;;1.60;99.90;;;;;;5009658;28;1177;-62
2022/12/04 01:32:20;;;;;;;;;;;1.20;99.90;;;;;;4991759;28;1227;-61
2022/12/04 01:34:46;;;;;;;;;;;1.30;99.90;;;;;;5000147;28;1041;-62
2022/12/04 01:37:11;;;;;;;;;;;1.20;99.90;;;;;;4999215;28;1150;-61
2022/12/04 01:39:37;;;;;;;;;;;1.20;99.90;;;;;;5010060;28;1118;-62
2022/12/04 01:42:03;;;;;;;;;;;1.20;99.90;;;;;;5006610;28;1975;-62
2022/12/04 01:44:29;;;;;;;;;;;1.20;99.90;;;;;;5009490;28;1040;-61
2022/12/04 01:46:56;;;;;;;;;;;1.60;99.90;;;;;;4991208;28;1472;-61
2022/12/04 01:49:25;;;;;;;;;;;1.20;99.90;;;;;;4990260;28;1119;-62
2022/12/04 01:51:53;;;;;;;;;;;1.30;99.90;;;;;;4992310;28;1292;-62
2022/12/04 01:54:21;;;;;;;;;;;1.90;99.90;;;;;;4990248;28;1131;-62
2022/12/04 01:56:49;;;;;;;;;;;1.40;99.90;;;;;;4988960;28;1107;-62
2022/12/04 01:59:16;;;;;;;;;;;1.30;99.90;;;;;;4989969;28;1067;-61
2022/12/04 02:01:46;;;;;;;;;;;1.30;99.90;;;;;;4999315;28;1918;-61
2022/12/04 02:04:11;;;;;;;;;;;1.30;99.90;;;;;;4988819;28;1132;-62
2022/12/04 02:06:37;;;;;;;;;;;1.30;99.90;;;;;;4990122;28;1209;-61
2022/12/04 02:09:02;;;;;;;;;;;1.30;99.90;;;;;;4989801;28;1219;-62
2022/12/04 02:11:34;;;;;;;;;;;1.20;99.90;;;;;;4988671;28;1099;-62
2022/12/04 02:14:08;;;;;;;;;;;1.30;99.90;;;;;;4993341;28;1456;-62
2022/12/04 02:16:38;;;;;;;;;;;1.30;99.90;;;;;;4989931;28;1177;-62
2022/12/04 02:19:03;;;;;;;;;;;1.30;99.90;;;;;;5002129;28;1080;-61
2022/12/04 02:21:32;;;;;;;;;;;1.80;99.90;;;;;;5009471;28;1914;-61
2022/12/04 02:24:00;;;;;;;;;;;1.40;99.90;;;;;;4975401;28;1162;-61
2022/12/04 02:26:32;;;;;;;;;;;1.20;99.90;;;;;;4999522;28;1310;-61
2022/12/04 02:29:16;;;;;;;;;;;1.20;99.90;;;;;;5004796;28;1119;-62
2022/12/04 02:31:45;;;;;;;;;;;1.30;99.90;;;;;;4996245;28;1125;-61
2022/12/04 02:34:17;;;;;;;;;;;1.20;99.90;;;;;;4955131;28;1096;-62
2022/12/04 02:36:46;;;;;;;;;;;1.30;99.90;;;;;;5001896;28;1136;-62
2022/12/04 02:39:17;;;;;;;;;;;1.30;99.90;;;;;;4989116;28;1098;-61
2022/12/04 02:41:46;;;;;;;;;;;1.30;99.90;;;;;;4989307;28;1907;-61
2022/12/04 02:44:17;;;;;;;;;;;1.30;99.90;;;;;;4972061;28;1199;-61
2022/12/04 02:46:45;;;;;;;;;;;1.30;99.90;;;;;;4971710;28;1664;-61
2022/12/04 02:49:14;;;;;;;;;;;1.30;99.90;;;;;;4989624;28;1025;-61
2022/12/04 02:51:42;;;;;;;;;;;1.20;99.90;;;;;;5004991;28;1269;-61
2022/12/04 02:54:10;;;;;;;;;;;1.40;99.90;;;;;;4991045;28;1220;-61
2022/12/04 02:56:38;;;;;;;;;;;1.30;99.90;;;;;;4989398;28;1111;-61
2022/12/04 02:59:07;;;;;;;;;;;1.50;99.90;;;;;;4989468;28;1103;-61
2022/12/04 03:01:36;;;;;;;;;;;1.20;99.90;;;;;;4991163;28;1983;-61
2022/12/04 03:04:14;;;;;;;;;;;1.20;99.90;;;;;;5008373;28;1277;-61
2022/12/04 03:06:41;;;;;;;;;;;1.20;99.90;;;;;;4992227;28;1130;-61
2022/12/04 03:09:10;;;;;;;;;;;1.20;99.90;;;;;;4990276;28;1253;-61
2022/12/04 03:11:37;;;;;;;;;;;1.20;99.90;;;;;;4987262;28;1215;-62
2022/12/04 03:14:12;;;;;;;;;;;1.40;99.90;;;;;;4989004;28;1300;-61
2022/12/04 03:16:39;;;;;;;;;;;1.20;99.90;;;;;;4997005;28;1249;-61
2022/12/04 03:19:08;;;;;;;;;;;1.20;99.90;;;;;;4989572;28;1161;-61
2022/12/04 03:21:36;;;;;;;;;;;1.20;99.90;;;;;;5004540;28;1942;-61
2022/12/04 03:24:09;;;;;;;;;;;1.20;99.90;;;;;;4989438;28;1114;-61
2022/12/04 03:26:44;;;;;;;;;;;1.20;99.90;;;;;;4989269;28;1111;-61
2022/12/04 03:29:14;;;;;;;;;;;1.20;99.90;;;;;;4991584;28;1127;-61
2022/12/04 03:31:46;;;;;;;;;;;1.20;99.90;;;;;;4996071;28;903;-61
2022/12/04 03:34:14;;;;;;;;;;;1.20;99.90;;;;;;4988715;28;1155;-61
2022/12/04 03:36:49;;;;;;;;;;;1.80;99.90;;;;;;4988440;28;1107;-61
2022/12/04 03:39:25;;;;;;;;;;;1.20;99.90;;;;;;4980184;28;1164;-61
2022/12/04 03:41:59;;;;;;;;;;;1.20;99.90;;;;;;4992224;28;1992;-61
2022/12/04 03:44:26;;;;;;;;;;;1.20;99.90;;;;;;4992026;28;1117;-61
2022/12/04 03:46:53;;;;;;;;;;;1.20;99.90;;;;;;4991997;28;1600;-61
2022/12/04 03:49:24;;;;;;;;;;;1.20;99.90;;;;;;4991945;28;1107;-61
2022/12/04 03:51:59;;;;;;;;;;;1.20;99.90;;;;;;5009756;28;1201;-61
2022/12/04 03:54:28;;;;;;;;;;;1.10;99.90;;;;;;5008118;28;1027;-61
2022/12/04 03:56:58;;;;;;;;;;;1.10;99.90;;;;;;5010395;28;1079;-61
2022/12/04 03:59:26;;;;;;;;;;;1.10;99.90;;;;;;5011914;28;1118;-61
2022/12/04 04:01:52;;;;;;;;;;;1.10;99.90;;;;;;5001693;28;1980;-61
2022/12/04 04:04:21;;;;;;;;;;;1.10;99.90;;;;;;4991111;28;1206;-61
2022/12/04 04:06:52;;;;;;;;;;;1.10;99.90;;;;;;4978292;28;1072;-61
2022/12/04 04:09:20;;;;;;;;;;;1.10;99.90;;;;;;4991714;28;1186;-61
2022/12/04 04:11:48;;;;;;;;;;;1.10;99.90;;;;;;4992336;28;1171;-61
2022/12/04 04:25:24;;;;;;;;;;;1.10;99.90;;;;;;5010356;28;1118;-61
2022/12/04 04:27:52;;;;;;;;;;;1.10;99.90;;;;;;5011245;28;1116;-61
2022/12/04 04:30:18;;;;;;;;;;;1.10;99.90;;;;;;5003092;28;1114;-61
2022/12/04 04:32:45;;;;;;;;;;;1.30;99.90;;;;;;4990242;28;1226;-61
2022/12/04 04:35:20;;;;;;;;;;;1.10;99.90;;;;;;4981713;28;1360;-61
2022/12/04 04:37:59;;;;;;;;;;;1.10;99.90;;;;;;4993628;28;1335;-61
2022/12/04 04:40:29;;;;;;;;;;;1.10;99.90;;;;;;4992517;28;1993;-61
2022/12/04 04:42:55;;;;;;;;;;;1.10;99.90;;;;;;4991579;28;1311;-61
2022/12/04 04:45:24;;;;;;;;;;;1.10;99.90;;;;;;4992278;28;1365;-61
2022/12/04 04:47:53;;;;;;;;;;;1.00;99.90;;;;;;4981653;28;1261;-61
2022/12/04 04:50:20;;;;;;;;;;;1.00;99.90;;;;;;5003766;28;1115;-61
2022/12/04 04:52:47;;;;;;;;;;;1.10;99.90;;;;;;4973014;28;1203;-61
2022/12/04 04:55:14;;;;;;;;;;;1.00;99.90;;;;;;4991178;28;1138;-61
2022/12/04 04:57:40;;;;;;;;;;;1.00;99.90;;;;;;4991133;28;1183;-61
2022/12/04 05:00:09;;;;;;;;;;;1.00;99.90;;;;;;4990106;28;1043;-61
2022/12/04 05:02:35;;;;;;;;;;;1.00;99.90;;;;;;4990836;28;1910;-61
2022/12/04 05:05:00;;;;;;;;;;;1.00;99.90;;;;;;4990436;28;1202;-61
2022/12/04 05:07:27;;;;;;;;;;;1.00;99.90;;;;;;4990491;28;1186;-61
2022/12/04 05:09:53;;;;;;;;;;;1.00;99.90;;;;;;4990864;28;1138;-61
2022/12/04 05:12:18;;;;;;;;;;;1.00;99.90;;;;;;4990923;28;1115;-61
2022/12/04 05:14:45;;;;;;;;;;;1.00;99.90;;;;;;4998134;28;1349;-61
2022/12/04 05:17:10;;;;;;;;;;;1.50;99.90;;;;;;5010277;28;1121;-61
2022/12/04 05:19:52;;;;;;;;;;;1.00;99.90;;;;;;5010344;28;1126;-61
2022/12/04 05:22:19;;;;;;;;;;;1.00;99.90;;;;;;4999622;28;1906;-61
2022/12/04 05:24:44;;;;;;;;;;;1.00;99.90;;;;;;4996872;28;978;-61
2022/12/04 05:27:10;;;;;;;;;;;1.00;99.90;;;;;;5009071;28;1141;-61
2022/12/04 05:29:36;;;;;;;;;;;1.00;99.90;;;;;;5009371;28;1077;-61
2022/12/04 05:32:01;;;;;;;;;;;1.00;99.90;;;;;;4991749;28;1174;-61
2022/12/04 05:34:27;;;;;;;;;;;1.00;99.90;;;;;;5010408;28;1248;-61
2022/12/04 05:36:53;;;;;;;;;;;1.10;99.90;;;;;;5008440;28;1102;-61
2022/12/04 05:39:18;;;;;;;;;;;1.10;99.90;;;;;;4990288;28;1111;-61
2022/12/04 05:41:44;;;;;;;;;;;1.00;99.90;;;;;;4990457;28;1914;-61
2022/12/04 05:44:09;;;;;;;;;;;1.00;99.90;;;;;;5009923;28;1090;-61
2022/12/04 05:46:35;;;;;;;;;;;1.10;99.90;;;;;;4993699;28;1622;-61
2022/12/04 05:49:01;;;;;;;;;;;1.10;99.90;;;;;;4989269;28;1105;-61
2022/12/04 05:51:26;;;;;;;;;;;1.30;99.90;;;;;;4990304;28;1338;-61
2022/12/04 05:53:52;;;;;;;;;;;1.20;99.90;;;;;;4990091;28;1111;-61
2022/12/04 05:56:17;;;;;;;;;;;1.10;99.90;;;;;;4989490;28;1127;-61
2022/12/04 05:58:43;;;;;;;;;;;1.00;99.90;;;;;;4996896;28;1120;-61
2022/12/04 06:01:11;;;;;;;;;;;1.00;99.90;;;;;;5004416;28;1938;-61
2022/12/04 06:03:37;;;;;;;;;;;1.10;99.90;;;;;;4989379;28;1072;-61
2022/12/04 06:06:03;;;;;;;;;;;1.10;99.90;;;;;;4989940;28;1163;-61
2022/12/04 06:08:29;;;;;;;;;;;1.10;99.90;;;;;;4971929;28;1129;-62
2022/12/04 06:10:55;;;;;;;;;;;1.20;99.90;;;;;;4989353;28;1115;-61
2022/12/04 06:13:21;;;;;;;;;;;1.10;99.90;;;;;;4992648;28;1099;-61
2022/12/04 06:15:46;;;;;;;;;;;1.40;99.90;;;;;;4989962;28;1776;-62
2022/12/04 06:18:12;;;;;;;;;;;1.10;99.90;;;;;;5008905;28;1138;-62
2022/12/04 06:20:38;;;;;;;;;;;1.10;99.90;;;;;;5009309;28;1977;-62
2022/12/04 06:23:04;;;;;;;;;;;1.10;99.90;;;;;;5009227;28;1150;-62
2022/12/04 06:25:30;;;;;;;;;;;1.70;99.90;;;;;;4999162;28;981;-62
2022/12/04 06:27:55;;;;;;;;;;;1.20;99.90;;;;;;5008795;28;1170;-62
2022/12/04 06:30:21;;;;;;;;;;;1.20;99.90;;;;;;4993978;28;1201;-62
2022/12/04 06:32:47;;;;;;;;;;;1.20;99.90;;;;;;4988957;28;1175;-62
2022/12/04 06:35:13;;;;;;;;;;;1.20;99.90;;;;;;5003518;28;1274;-62
2022/12/04 06:37:38;;;;;;;;;;;1.20;99.90;;;;;;5001782;28;1203;-62
2022/12/04 06:40:04;;;;;;;;;;;1.20;99.90;;;;;;4988805;28;1111;-62
2022/12/04 06:42:30;;;;;;;;;;;1.20;99.90;;;;;;4989544;28;2009;-62
2022/12/04 06:44:55;;;;;;;;;;;1.20;99.90;;;;;;4989454;28;1428;-62
2022/12/04 06:47:21;;;;;;;;;;;1.20;99.90;;;;;;4989211;28;1163;-62
2022/12/04 06:49:49;;;;;;;;;;;1.30;99.90;;;;;;4989876;28;1119;-62
2022/12/04 06:52:14;;;;;;;;;;;1.20;99.90;;;;;;5004282;28;1152;-62
2022/12/04 06:54:40;;;;;;;;;;;1.30;99.90;;;;;;5009154;28;1110;-62
2022/12/04 06:57:05;;;;;;;;;;;1.30;99.90;;;;;;5009429;28;1083;-62
2022/12/04 06:59:32;;;;;;;;;;;1.30;99.90;;;;;;4990539;28;1154;-62
2022/12/04 07:01:58;;;;;;;;;;;1.30;99.90;;;;;;4990781;28;1965;-62
2022/12/04 07:04:23;;;;;;;;;;;1.30;99.90;;;;;;4989329;28;1183;-62
2022/12/04 07:06:49;;;;;;;;;;;1.30;99.90;;;;;;4988443;28;1099;-62
2022/12/04 07:09:16;;;;;;;;;;;1.30;99.90;;;;;;4989549;28;1177;-62
2022/12/04 07:11:42;;;;;;;;;;;1.30;99.90;;;;;;5009313;28;1142;-62
2022/12/04 07:14:08;;;;;;;;;;;1.30;99.90;;;;;;5002768;28;1346;-62
2022/12/04 07:16:33;;;;;;;;;;;1.40;99.90;;;;;;4993159;28;1126;-62
2022/12/04 07:18:59;;;;;;;;;;;1.40;99.90;;;;;;4976383;28;1175;-62
2022/12/04 07:21:26;;;;;;;;;;;1.40;99.90;;;;;;5008302;28;2332;-62
2022/12/04 07:23:53;;;;;;;;;;;1.80;99.90;;;;;;4992804;28;1095;-62
2022/12/04 07:26:19;;;;;;;;;;;1.40;99.90;;;;;;4975503;28;1159;-62
2022/12/04 07:28:45;;;;;;;;;;;1.70;99.90;;;;;;4992913;28;1198;-62
2022/12/04 07:31:13;;;;;;;;;;;1.40;99.90;;;;;;4992321;28;1082;-62
2022/12/04 07:33:39;;;;;;;;;;;1.50;99.90;;;;;;4992716;28;1096;-62
2022/12/04 07:36:06;;;;;;;;;;;1.50;99.90;;;;;;4991300;28;1218;-62
2022/12/04 07:38:33;;;;;;;;;;;1.50;99.90;;;;;;4979958;28;1049;-62
2022/12/04 07:41:00;;;;;;;;;;;1.50;99.90;;;;;;4975349;28;1910;-62
2022/12/04 07:43:26;;;;;;;;;;;1.50;99.90;;;;;;4974405;28;2028;-62
2022/12/04 07:45:51;;;;;;;;;;;1.50;99.90;;;;;;4991290;28;1321;-62
2022/12/04 07:48:17;;;;;;;;;;;1.60;99.90;;;;;;4991413;28;1268;-62
2022/12/04 07:50:43;;;;;;;;;;;1.90;99.90;;;;;;4990326;28;1237;-62
2022/12/04 07:53:08;;;;;;;;;;;1.60;99.90;;;;;;4990093;28;1153;-62
2022/12/04 07:55:34;;;;;;;;;;;1.60;99.90;;;;;;4991188;28;1190;-62
2022/12/04 07:58:00;;;;;;;;;;;1.60;99.90;;;;;;4993301;28;1119;-63
2022/12/04 08:00:26;;;;;;;;;;;1.60;99.90;;;;;;5011646;28;1189;-63
2022/12/04 08:02:51;;;;;;;;;;;1.70;99.90;;;;;;4992880;28;1902;-63
2022/12/04 08:05:17;;;;;;;;;;;1.70;99.90;;;;;;4991987;28;1300;-62
2022/12/04 08:07:43;;;;;;;;;;;1.70;99.90;;;;;;4992132;28;1170;-63
2022/12/04 08:10:09;;;;;;;;;;;1.70;99.90;;;;;;5011155;28;1126;-62
2022/12/04 08:12:34;;;;;;;;;;;1.70;99.90;;;;;;4977090;28;1096;-62
2022/12/04 08:15:00;;;;;;;;;;;1.70;99.90;;;;;;4995260;28;1498;-63
2022/12/04 08:17:26;;;;;;;;;;;1.70;99.90;;;;;;4991326;28;1013;-63
2022/12/04 08:19:52;;;;;;;;;;;1.70;99.90;;;;;;4991813;28;1107;-63
2022/12/04 08:22:17;;;;;;;;;;;1.70;99.90;;;;;;4995442;28;1914;-63
2022/12/04 08:24:43;;;;;;;;;;;1.80;99.90;;;;;;4990471;28;1155;-63
2022/12/04 08:27:09;;;;;;;;;;;1.80;99.90;;;;;;4991964;28;1095;-63
2022/12/04 08:29:35;;;;;;;;;;;1.80;99.90;;;;;;4991265;28;1215;-63
2022/12/04 08:32:00;;;;;;;;;;;1.80;99.90;;;;;;4990971;28;1129;-63
2022/12/04 08:34:26;;;;;;;;;;;2.10;99.90;;;;;;4991695;28;961;-63
2022/12/04 08:36:51;;;;;;;;;;;1.90;99.90;;;;;;4991924;28;1218;-63
2022/12/04 08:39:17;;;;;;;;;;;2.20;99.90;;;;;;4998991;28;1101;-63
2022/12/04 08:41:43;;;;;;;;;;;1.90;99.90;;;;;;5011115;28;1983;-63
2022/12/04 08:44:09;;;;;;;;;;;2.00;99.90;;;;;;4992143;28;1140;-63
2022/12/04 08:46:34;;;;;;;;;;;2.00;99.90;;;;;;4990962;28;1608;-63
2022/12/04 08:49:00;;;;;;;;;;;2.00;99.90;;;;;;5011163;28;1150;-63
2022/12/04 08:51:27;;;;;;;;;;;2.00;99.90;;;;;;4996571;28;1294;-63
2022/12/04 08:53:54;;;;;;;;;;;2.00;99.90;;;;;;4990623;28;1103;-63
2022/12/04 08:56:19;;;;;;;;;;;2.00;99.90;;;;;;4991590;28;1142;-63
2022/12/04 08:58:45;;;;;;;;;;;2.20;99.90;;;;;;5009871;28;1106;-63
2022/12/04 09:01:12;;;;;;;;;;;2.10;99.90;;;;;;4994102;28;3315;-63
2022/12/04 09:03:38;;;;;;;;;;;2.10;99.90;;;;;;4990457;28;3527;-63
2022/12/04 09:06:04;;;;;;;;;;;2.20;99.90;;;;;;5003404;28;3094;-63
2022/12/04 09:08:30;;;;;;;;;;;2.20;99.90;;;;;;4997904;28;1053;-63
2022/12/04 09:11:06;;;;;;;;;;;2.20;99.90;;;;;;5010457;28;1177;-63
2022/12/04 09:13:32;;;;;;;;;;;2.20;99.90;;;;;;4999477;28;1320;-63
2022/12/04 09:15:58;;;;;;;;;;;2.30;99.90;;;;;;4990666;28;1122;-63
2022/12/04 09:18:24;;;;;;;;;;;2.30;99.90;;;;;;4993604;28;3200;-63
2022/12/04 09:20:55;;;;;;;;;;;2.30;99.90;;;;;;4985397;28;2015;-63
2022/12/04 09:23:20;;;;;;;;;;;2.30;99.90;;;;;;4997590;28;2296;-63
2022/12/04 09:25:46;;;;;;;;;;;2.40;99.90;;;;;;4982300;28;2314;-63
2022/12/04 09:28:11;;;;;;;;;;;2.40;99.90;;;;;;4989314;28;2214;-63
2022/12/04 09:30:38;;;;;;;;;;;2.40;99.90;;;;;;4972731;28;1123;-63
2022/12/04 09:33:03;;;;;;;;;;;2.40;99.90;;;;;;4988789;28;2502;-63
2022/12/04 09:35:29;;;;;;;;;;;2.40;99.90;;;;;;4985376;28;1088;-63
2022/12/04 09:37:55;;;;;;;;;;;2.50;99.90;;;;;;4976521;28;1297;-63
2022/12/04 09:40:25;;;;;;;;;;;2.70;99.90;;;;;;4989659;28;1830;-63
2022/12/04 09:42:54;;;;;;;;;;;2.60;99.90;;;;;;4989530;28;1906;-63
2022/12/04 09:45:22;;;;;;;;;;;2.60;99.90;;;;;;4990455;28;1453;-63
2022/12/04 09:47:50;;;;;;;;;;;2.60;99.90;;;;;;4990418;28;1107;-63
2022/12/04 09:50:19;;;;;;;;;;;2.60;99.90;;;;;;5001955;28;1467;-63
2022/12/04 09:52:57;;;;;;;;;;;2.70;99.90;;;;;;4990084;28;1127;-63
2022/12/04 09:55:28;;;;;;;;;;;2.70;99.90;;;;;;4989539;28;1155;-63
2022/12/04 09:57:55;;;;;;;;;;;2.70;99.90;;;;;;4985814;28;1938;-63
2022/12/04 10:00:21;;;;;;;;;;;2.80;99.90;;;;;;4990108;28;1139;-63
2022/12/04 10:02:50;;;;;;;;;;;2.80;99.90;;;;;;4989473;28;1986;-63
2022/12/04 10:05:20;;;;;;;;;;;2.80;99.90;;;;;;4989470;28;1412;-63
2022/12/04 10:07:52;;;;;;;;;;;2.80;99.90;;;;;;5004391;28;1192;-62
2022/12/04 10:10:25;;;;;;;;;;;2.90;99.90;;;;;;5008937;28;1181;-63
2022/12/04 10:12:57;;;;;;;;;;;2.90;99.90;;;;;;5009360;28;1180;-63
2022/12/04 10:15:27;;;;;;;;;;;2.90;99.90;;;;;;4989935;28;1579;-63
2022/12/04 10:17:59;;;;;;;;;;;2.90;99.90;;;;;;4971792;28;1115;-63
2022/12/04 10:20:25;;;;;;;;;;;3.00;99.90;;;;;;4989369;28;1233;-63
2022/12/04 10:22:52;;;;;;;;;;;3.00;99.90;;;;;;4989886;28;2069;-63
2022/12/04 10:25:19;;;;;;;;;;;3.00;99.90;;;;;;4986214;28;1168;-63
2022/12/04 10:27:48;;;;;;;;;;;3.00;99.90;;;;;;5003466;28;1143;-63
2022/12/04 10:30:18;;;;;;;;;;;3.10;99.90;;;;;;4989308;28;1134;-63
2022/12/04 10:32:44;;;;;;;;;;;3.10;99.90;;;;;;4979755;28;2223;-63
2022/12/04 10:35:14;;;;;;;;;;;3.20;99.90;;;;;;4972511;28;1158;-63
2022/12/04 10:37:40;;;;;;;;;;;3.20;99.90;;;;;;5001267;28;1079;-63
2022/12/04 10:40:26;;;;;;;;;;;3.20;99.90;;;;;;4988396;28;1111;-63
2022/12/04 10:42:57;;;;;;;;;;;3.20;99.90;;;;;;4988955;28;1966;-63
2022/12/04 10:45:23;;;;;;;;;;;3.30;99.90;;;;;;4988781;28;1449;-63
2022/12/04 10:47:50;;;;;;;;;;;3.30;99.90;;;;;;4991881;28;1184;-63
2022/12/04 10:50:17;;;;;;;;;;;3.30;99.90;;;;;;4992732;28;1127;-63
2022/12/04 10:52:43;;;;;;;;;;;3.30;99.90;;;;;;5004478;28;1131;-63
2022/12/04 10:55:09;;;;;;;;;;;3.40;99.90;;;;;;5013198;28;1137;-63
2022/12/04 10:57:39;;;;;;;;;;;3.40;99.90;;;;;;5013072;28;1142;-63
2022/12/04 11:00:23;;;;;;;;;;;3.40;99.90;;;;;;4999693;28;1114;-63
2022/12/04 11:02:49;;;;;;;;;;;3.50;99.90;;;;;;4993412;28;1910;-63
2022/12/04 11:05:27;;;;;;;;;;;3.50;99.90;;;;;;4992814;28;1095;-63
2022/12/04 11:07:53;;;;;;;;;;;3.50;99.90;;;;;;4996123;28;1131;-63
2022/12/04 11:10:19;;;;;;;;;;;3.50;99.90;;;;;;5012851;28;1083;-63
2022/12/04 11:12:53;;;;;;;;;;;3.50;99.90;;;;;;5007522;28;1114;-63
2022/12/04 11:15:19;;;;;;;;;;;3.50;99.90;;;;;;4996441;28;1494;-63
2022/12/04 11:17:44;;;;;;;;;;;3.40;99.90;;;;;;4975069;28;1158;-63
2022/12/04 11:20:14;;;;;;;;;;;3.50;99.90;;;;;;4992118;28;1177;-63
2022/12/04 11:22:50;;;;;;;;;;;3.50;99.90;;;;;;4992966;28;1918;-63
2022/12/04 11:25:18;;;;;;;;;;;3.40;99.90;;;;;;4992545;28;1091;-63
2022/12/04 11:27:47;;;;;;;;;;;3.40;99.90;;;;;;5011422;28;1111;-63
2022/12/04 11:30:15;;;;;;;;;;;3.50;99.90;;;;;;4994023;28;1122;-63
2022/12/04 11:32:42;;;;;;;;;;;3.40;99.90;;;;;;4990141;28;1895;-63
2022/12/04 11:35:19;;;;;;;;;;;3.40;99.90;;;;;;4991859;28;1111;-63
2022/12/04 11:37:52;;;;;;;;;;;3.40;99.90;;;;;;5000675;28;1065;-63
2022/12/04 11:40:19;;;;;;;;;;;3.50;99.90;;;;;;5002451;28;1228;-63
2022/12/04 11:42:55;;;;;;;;;;;3.50;99.90;;;;;;4991565;28;1973;-63
2022/12/04 11:45:22;;;;;;;;;;;3.50;99.90;;;;;;4990113;28;1398;-63
2022/12/04 11:48:01;;;;;;;;;;;3.50;99.90;;;;;;4991783;28;1142;-64
2022/12/04 11:50:38;;;;;;;;;;;3.50;99.90;;;;;;4991858;28;1198;-63
2022/12/04 11:53:06;;;;;;;;;;;3.50;99.90;;;;;;4995496;28;1126;-63
2022/12/04 11:55:32;;;;;;;;;;;3.50;99.90;;;;;;5011303;28;1106;-63
2022/12/04 11:58:14;;;;;;;;;;;3.50;99.90;;;;;;5012124;28;1154;-63
2022/12/04 12:00:46;;;;;;;;;;;3.50;99.90;;;;;;5009855;28;1997;-63
2022/12/04 12:03:14;;;;;;;;;;;3.60;99.90;;;;;;4990881;28;1245;-63
2022/12/04 12:05:49;;;;;;;;;;;3.60;99.90;;;;;;4992225;28;1170;-63
2022/12/04 12:08:16;;;;;;;;;;;3.60;99.90;;;;;;4992335;28;1147;-63
2022/12/04 12:10:46;;;;;;;;;;;3.60;99.90;;;;;;4991010;28;1102;-63
2022/12/04 12:13:24;;;;;;;;;;;3.60;99.90;;;;;;5009552;28;1220;-63
2022/12/04 12:15:58;;;;;;;;;;;3.60;99.90;;;;;;4991149;28;1650;-63
2022/12/04 12:18:44;;;;;;;;;;;3.60;99.90;;;;;;4991643;28;1285;-63
2022/12/04 12:21:15;;;;;;;;;;;3.60;99.90;;;;;;4992177;28;1911;-64
2022/12/04 12:23:54;;;;;;;;;;;3.60;99.90;;;;;;4993069;28;1230;-63
2022/12/04 12:26:23;;;;;;;;;;;3.60;99.90;;;;;;4990820;28;1104;-63
2022/12/04 12:29:00;;;;;;;;;;;3.60;99.90;;;;;;4990976;28;1229;-63
2022/12/04 12:31:42;;;;;;;;;;;3.60;99.90;;;;;;4990904;28;1237;-63
2022/12/04 12:34:10;;;;;;;;;;;3.60;99.90;;;;;;4989880;28;1136;-63
2022/12/04 12:36:41;;;;;;;;;;;3.60;99.90;;;;;;4997424;28;1186;-63
2022/12/04 12:39:11;;;;;;;;;;;3.50;99.90;;;;;;4991391;28;1074;-63
2022/12/04 12:41:40;;;;;;;;;;;3.60;99.90;;;;;;4990851;28;1956;-63
2022/12/04 12:44:11;;;;;;;;;;;3.60;99.90;;;;;;4990884;28;1162;-63
2022/12/04 12:46:42;;;;;;;;;;;3.60;99.90;;;;;;4991071;28;1599;-63
2022/12/04 12:49:08;;;;;;;;;;;3.60;99.90;;;;;;4991310;28;1099;-63
2022/12/04 12:51:34;;;;;;;;;;;3.60;99.90;;;;;;4990570;28;1166;-63
2022/12/04 12:54:03;;;;;;;;;;;3.60;99.90;;;;;;4991304;28;1152;-63
2022/12/04 12:56:34;;;;;;;;;;;3.60;99.90;;;;;;5005993;28;1139;-64
2022/12/04 12:59:02;;;;;;;;;;;3.60;99.90;;;;;;5010297;28;1171;-64
2022/12/04 13:01:37;;;;;;;;;;;3.60;99.90;;;;;;5003949;28;1910;-63
2022/12/04 13:04:07;;;;;;;;;;;3.60;99.90;;;;;;4972807;28;1180;-63
2022/12/04 13:06:36;;;;;;;;;;;3.60;99.90;;;;;;4990592;28;1036;-63
2022/12/04 13:09:19;;;;;;;;;;;3.60;99.90;;;;;;4991297;28;1216;-63
2022/12/04 13:11:46;;;;;;;;;;;3.60;99.90;;;;;;4990393;28;1039;-63
2022/12/04 13:14:12;;;;;;;;;;;3.70;99.90;;;;;;4994665;28;1103;-63
2022/12/04 13:16:44;;;;;;;;;;;3.60;99.90;;;;;;4973351;28;1143;-63
2022/12/04 13:19:15;;;;;;;;;;;3.60;99.90;;;;;;4990099;28;1127;-63
2022/12/04 13:21:44;;;;;;;;;;;3.60;99.90;;;;;;4987109;28;3207;-63
2022/12/04 13:24:22;;;;;;;;;;;3.60;99.90;;;;;;4984606;28;3871;-63
2022/12/04 13:26:48;;;;;;;;;;;3.60;99.90;;;;;;4982134;28;3756;-64
2022/12/04 13:29:23;;;;;;;;;;;3.70;99.90;;;;;;4987584;28;3207;-62
2022/12/04 13:31:56;;;;;;;;;;;3.70;99.90;;;;;;4989039;28;2119;-62
2022/12/04 13:34:46;;;;;;;;;;;3.70;99.90;;;;;;4988942;28;1343;-62
2022/12/04 13:37:24;;;;;;;;;;;3.70;99.90;;;;;;4990130;28;1262;-62
2022/12/04 13:40:09;;;;;;;;;;;3.70;99.90;;;;;;4986227;28;1091;-62
2022/12/04 13:42:35;;;;;;;;;;;3.70;99.90;;;;;;4977412;28;1915;-62
2022/12/04 13:45:05;;;;;;;;;;;3.60;99.90;;;;;;4991524;28;1401;-62
2022/12/04 13:47:32;;;;;;;;;;;4.00;99.90;;;;;;4989579;28;1216;-62
2022/12/04 13:50:07;;;;;;;;;;;3.70;99.90;;;;;;4990405;28;1107;-62
2022/12/04 13:52:39;;;;;;;;;;;3.60;99.90;;;;;;4990284;28;1170;-62
2022/12/04 13:55:25;;;;;;;;;;;3.60;99.90;;;;;;4989324;28;1115;-62
2022/12/04 13:57:53;;;;;;;;;;;3.60;99.90;;;;;;4989554;28;1977;-62
2022/12/04 14:00:24;;;;;;;;;;;3.60;99.90;;;;;;4990297;28;1118;-62
2022/12/04 14:02:53;;;;;;;;;;;3.60;99.90;;;;;;4989079;28;1903;-62
2022/12/04 14:05:25;;;;;;;;;;;3.60;99.90;;;;;;4989576;28;1249;-62
2022/12/04 14:07:57;;;;;;;;;;;3.60;99.90;;;;;;5005281;28;1130;-62
2022/12/04 14:10:27;;;;;;;;;;;3.60;99.90;;;;;;5008712;28;1102;-62
2022/12/04 14:12:57;;;;;;;;;;;3.60;99.90;;;;;;4991763;28;1091;-62
2022/12/04 14:15:25;;;;;;;;;;;3.60;99.90;;;;;;4999901;28;1441;-62
2022/12/04 14:18:00;;;;;;;;;;;3.60;99.90;;;;;;4986302;28;1126;-62
2022/12/04 14:20:28;;;;;;;;;;;3.60;99.90;;;;;;4989691;28;1184;-62
2022/12/04 14:22:54;;;;;;;;;;;3.60;99.90;;;;;;4993639;28;1911;-62
2022/12/04 14:25:22;;;;;;;;;;;3.60;99.90;;;;;;4991487;28;1916;-62
2022/12/04 14:27:55;;;;;;;;;;;3.60;99.90;;;;;;5000857;28;1156;-62
2022/12/04 14:30:22;;;;;;;;;;;3.60;99.90;;;;;;4987947;28;1166;-62
2022/12/04 14:32:49;;;;;;;;;;;3.60;99.90;;;;;;4988654;28;1883;-62
2022/12/04 14:35:18;;;;;;;;;;;3.60;99.90;;;;;;4998305;28;1158;-62
2022/12/04 14:37:49;;;;;;;;;;;3.60;99.90;;;;;;4996820;28;1040;-62
2022/12/04 14:40:18;;;;;;;;;;;3.60;99.90;;;;;;5004258;28;1083;-62
2022/12/04 14:42:46;;;;;;;;;;;3.60;99.90;;;;;;4989586;28;1915;-62
2022/12/04 14:45:30;;;;;;;;;;;3.50;99.90;;;;;;4971359;28;1989;-62
2022/12/04 14:48:01;;;;;;;;;;;3.60;99.90;;;;;;4989580;28;1155;-62
2022/12/04 14:50:33;;;;;;;;;;;3.50;99.90;;;;;;4988737;28;1174;-62
2022/12/04 14:53:02;;;;;;;;;;;3.60;99.90;;;;;;4989374;28;1138;-62
2022/12/04 14:55:41;;;;;;;;;;;3.50;99.90;;;;;;4972427;28;1405;-62
2022/12/04 14:58:30;;;;;;;;;;;3.50;99.90;;;;;;4990333;28;1163;-62
2022/12/04 15:00:57;;;;;;;;;;;3.50;99.90;;;;;;5006440;28;1959;-62
2022/12/04 15:03:23;;;;;;;;;;;3.50;99.90;;;;;;4989348;28;1174;-62